Mc Alester Regional Airport
KMLC : now visible

Airfield :











YOU CAN JOIN US ON...

 
LOGIN :

Register | Disclaimer

   EN    FR    IT 

 









Legend :    VFR   Marginal VFR   IFR   Intensive IFR   Very Intensive IFR
Visi :
Ceiling :
>= 8 km
>= 3000ft
5 to 8 km
1000 to 3000 ft
1500m to 5 km
500 to 1000 ft
800 to 1500m
200 to 500 ft
< 800m
< 200 ft
Symbols :   Thunderstorms  Fog  Heavy snow  Heavy precipitations  Wind > 20 kt







- Airport Elevation : 770 ft


KMLC - Mc Alester Regional

CURRENT METAR :
  • 202020Z AUTO VRB06KT 3SM RA BR FEW012 SCT041 BKN080 23/22 A2999 RMK AO2 LTG DSNT SE-W P0010 T02280217

EXPIRED METARs :
  • 202010Z AUTO 13006KT 1 3/4SM +RA BR SCT012 BKN037 OVC080 23/22 A2999 RMK AO2 LTG DSNT SE-SW P0008 T02280217
  • 202005Z AUTO 14006KT 8SM -RA SCT010 BKN033 OVC048 23/22 A2999 RMK AO2 LTG DSNT SE-SW P0001 T02280217
  • 201953Z AUTO 13007KT 2 1/2SM VCTS +RA BR BKN009 BKN025 OVC036 23/22 A2999 RMK AO2 LTG DSNT ALQDS SLP149 P0062 T02280217
  • 201943Z AUTO VRB03KT 1SM VCTS RA BR BKN011 OVC015 23/22 A3000 RMK AO2 LTG DSNT SE AND S P0056 T02280222
  • 201934Z AUTO 13003KT 3/4SM VCTS +RA BR SCT009 OVC015 23/22 A3001 RMK AO2 LTG DSNT SE AND S P0049 T02280217
  • 201919Z AUTO 16003KT 3SM RA BR BKN013 OVC021 23/22 A3000 RMK AO2 LTG DSNT SE-SW P0029 T02280217
  • 201856Z AUTO 13007KT 1 1/4SM +RA BR FEW011 BKN028 OVC036 23/22 A2999 RMK AO2 LTG DSNT S P0003 T02280217
  • 201753Z AUTO 13007KT 3SM -RA BR FEW015 SCT026 OVC034 23/22 A3001 RMK AO2 RAB18 SLP154 P0005 60028 T02280217 10228 20211 50001

TAF KMLC
Valid from the 20 at 20:00 until the 21 at 18:00 UTC


201945Z 2020/2118 00000KT 4SM RA BR BKN011
TEMPO 2020/2023 1SM +TSRA BR BKN005CB
FM210100 15007KT 3SM BR OVC009
No reported NOTAMs for that airfield.



MET'MAP, your aeronautical weather chart ! - Copyright ORBIFLY December 2007 - Disclaimer

ORBIFLY MET'MAP TEAM :

Programming & Development : Alexandra Zaïnal
Concept & Development : Baudouin d'Aumeries
Co-Development & Prog : Marc-Olivier Méhu
Technical & hardware support : Manuel Goepfert

Contact : metmap@orbifly.com




SOURCES & CREDITS :

   NOAA       Earth
Advisory